Time;durP1;ratioP1;P1;durP2;ratioP2;P2;SDS_P1;SDS_P2;PMS_P1;PMS_P2;Temp;Humidity;BMP_temperature;BMP_pressure;BME280_temperature;BME280_humidity;BME280_pressure;Samples;Min_cycle;Max_cycle;Signal;HPM_P1;HPM_P2
2021/12/11 00:03:43;;;;;;;13.30;7.00;;;-0.50;99.90;;;;;;12467470;28;20098;-87
2021/12/11 00:10:06;;;;;;;10.85;6.45;;;-0.50;99.90;;;;;;12464544;28;20061;-87
2021/12/11 00:16:12;;;;;;;14.25;6.90;;;-0.60;99.90;;;;;;12478567;28;20045;-87
2021/12/11 00:22:19;;;;;;;15.75;6.88;;;-0.70;99.90;;;;;;12459972;28;20512;-89
2021/12/11 00:28:21;;;;;;;14.57;7.28;;;-0.70;99.90;;;;;;12468549;28;20053;-87
2021/12/11 00:34:23;;;;;;;13.80;7.47;;;-0.70;99.90;;;;;;12463492;28;20188;-87
2021/12/11 00:40:27;;;;;;;11.43;6.82;;;-0.80;99.90;;;;;;12471571;28;20053;-89
2021/12/11 00:46:31;;;;;;;11.87;7.20;;;-0.80;99.90;;;;;;12472693;28;20160;-88
2021/12/11 00:52:35;;;;;;;14.10;6.97;;;-0.90;99.90;;;;;;12461545;28;20053;-88
2021/12/11 00:58:39;;;;;;;11.23;5.97;;;-1.00;99.90;;;;;;12458275;28;20053;-87
2021/12/11 01:04:42;;;;;;;14.02;7.20;;;-1.00;99.90;;;;;;12472273;28;20140;-87
2021/12/11 01:10:44;;;;;;;14.68;6.43;;;-1.10;99.90;;;;;;12460979;28;20049;-88
2021/12/11 01:17:06;;;;;;;14.18;7.93;;;-1.00;99.90;;;;;;12462308;28;20049;-88
2021/12/11 01:23:27;;;;;;;11.38;5.72;;;-1.10;99.90;;;;;;12460219;28;20099;-87
2021/12/11 01:29:32;;;;;;;13.15;7.53;;;-1.10;99.90;;;;;;12455136;28;20049;-86
2021/12/11 01:35:34;;;;;;;17.97;9.20;;;-1.20;99.90;;;;;;12450243;28;20090;-88
2021/12/11 01:41:36;;;;;;;14.48;6.50;;;-1.10;99.90;;;;;;12472656;28;20115;-86
2021/12/11 01:47:41;;;;;;;19.65;11.50;;;-1.00;99.90;;;;;;12469314;28;20045;-86
2021/12/11 01:53:55;;;;;;;22.00;11.40;;;-0.80;99.90;;;;;;12466239;28;20037;-88
2021/12/11 02:00:08;;;;;;;17.77;8.80;;;-0.90;99.90;;;;;;12452323;28;20482;-88
2021/12/11 02:06:11;;;;;;;18.17;7.68;;;-1.00;99.90;;;;;;12455481;28;20057;-86
2021/12/11 02:12:17;;;;;;;12.45;6.57;;;-0.70;99.90;;;;;;12457197;28;20076;-88
2021/12/11 02:18:33;;;;;;;15.85;7.60;;;-0.90;99.90;;;;;;12468905;28;20048;-88
2021/12/11 02:24:40;;;;;;;18.73;8.68;;;-0.80;99.90;;;;;;12456456;28;20041;-86
2021/12/11 02:30:49;;;;;;;13.23;7.97;;;-1.00;99.90;;;;;;12466895;28;20433;-87
2021/12/11 02:36:58;;;;;;;15.10;8.38;;;-1.00;99.90;;;;;;12482176;28;20061;-87
2021/12/11 02:43:37;;;;;;;15.70;8.98;;;-0.90;99.90;;;;;;12464544;28;20045;-88
2021/12/11 02:50:02;;;;;;;16.98;9.95;;;-0.80;99.90;;;;;;12455960;28;20093;-88
2021/12/11 02:56:27;;;;;;;;;;;-0.80;99.90;;;;;;12392712;28;20128;-87
2021/12/11 03:02:30;;;;;;;15.77;9.35;;;-0.60;99.90;;;;;;12411609;28;19924;-88
2021/12/11 03:08:34;;;;;;;21.48;9.30;;;-0.40;99.90;;;;;;12413929;28;20425;-87
2021/12/11 03:14:36;;;;;;;15.68;8.68;;;-0.20;99.90;;;;;;12412956;28;21083;-87
2021/12/11 03:20:40;;;;;;;16.08;9.50;;;-0.30;99.90;;;;;;12412082;28;20050;-88
2021/12/11 03:26:44;;;;;;;16.55;10.38;;;-0.40;99.90;;;;;;12412433;28;20057;-88
2021/12/11 03:32:52;;;;;;;18.10;11.05;;;-0.50;99.90;;;;;;12410261;28;20120;-87
2021/12/11 03:39:01;;;;;;;20.90;9.27;;;-0.50;99.90;;;;;;12414785;28;20540;-87
2021/12/11 03:45:12;;;;;;;22.65;10.63;;;-0.50;99.90;;;;;;12415461;28;20068;-87
2021/12/11 03:51:28;;;;;;;20.65;10.95;;;-0.50;99.90;;;;;;12397431;28;1086758;-89
2021/12/11 03:57:31;;;;;;;20.50;11.73;;;-0.40;99.90;;;;;;12463436;28;20093;-88
2021/12/11 04:03:35;;;;;;;18.17;12.05;;;-0.30;99.90;;;;;;12458107;28;20055;-88
2021/12/11 04:09:38;;;;;;;24.20;11.65;;;-0.30;99.90;;;;;;12474904;28;20054;-88
2021/12/11 04:15:46;;;;;;;21.40;12.40;;;-0.20;99.90;;;;;;12468691;28;20048;-89
2021/12/11 04:21:49;;;;;;;20.77;12.40;;;-0.20;99.90;;;;;;12513187;28;20064;-89
2021/12/11 04:27:52;;;;;;;16.08;10.30;;;-0.10;99.90;;;;;;12472019;28;20412;-89
2021/12/11 04:33:57;;;;;;;19.27;11.27;;;0.00;99.90;;;;;;12469867;28;20045;-88
2021/12/11 04:40:05;;;;;;;19.38;10.90;;;0.10;99.90;;;;;;12475638;28;20064;-87
2021/12/11 04:46:09;;;;;;;16.88;10.32;;;0.10;99.90;;;;;;12458265;28;20048;-88
2021/12/11 04:52:18;;;;;;;;;;;0.10;99.90;;;;;;12456563;28;20152;-88
2021/12/11 05:04:53;;;;;;;18.63;11.60;;;0.10;99.90;;;;;;12478718;28;20069;-88
2021/12/11 05:11:02;;;;;;;19.38;11.68;;;0.20;99.90;;;;;;12459691;28;20049;-88
2021/12/11 05:17:06;;;;;;;17.80;11.00;;;0.10;99.90;;;;;;12454019;28;20132;-88
2021/12/11 05:23:08;;;;;;;17.90;10.77;;;0.20;99.90;;;;;;12451653;28;20056;-89
2021/12/11 05:29:10;;;;;;;19.05;11.82;;;0.10;99.90;;;;;;12469404;28;20664;-88
2021/12/11 05:35:13;;;;;;;19.55;11.27;;;0.00;99.90;;;;;;12509566;28;20037;-88
2021/12/11 05:41:18;;;;;;;19.63;12.00;;;0.00;99.90;;;;;;12482482;28;20084;-90
2021/12/11 05:47:20;;;;;;;;;;;0.00;99.90;;;;;;12463643;28;20495;-88
2021/12/11 05:53:23;;;;;;;13.70;8.98;;;0.10;99.90;;;;;;12464986;28;19955;-89
2021/12/11 05:59:26;;;;;;;18.20;11.27;;;0.20;99.90;;;;;;12462764;28;20128;-89
2021/12/11 06:05:28;;;;;;;19.70;11.30;;;0.10;99.90;;;;;;12480486;28;20053;-88
2021/12/11 06:11:30;;;;;;;22.23;12.05;;;0.00;99.90;;;;;;12464535;28;20045;-89
2021/12/11 06:17:34;;;;;;;20.02;12.45;;;-0.10;99.90;;;;;;12464007;28;20786;-88
2021/12/11 06:23:36;;;;;;;23.70;13.02;;;-0.10;99.90;;;;;;12462852;28;20052;-89
2021/12/11 06:29:39;;;;;;;21.55;11.95;;;0.10;99.90;;;;;;12474719;28;20080;-90
2021/12/11 06:35:50;;;;;;;21.45;13.48;;;0.20;99.90;;;;;;12465443;28;20163;-89
2021/12/11 06:41:57;;;;;;;19.92;13.10;;;0.40;99.90;;;;;;12478107;28;20057;-88
2021/12/11 06:47:59;;;;;;;22.40;12.95;;;0.40;99.90;;;;;;12462131;28;20045;-88
2021/12/11 06:54:07;;;;;;;22.50;14.30;;;0.20;99.90;;;;;;12478758;28;20274;-90
2021/12/11 07:00:10;;;;;;;23.75;13.27;;;-0.10;99.90;;;;;;12459767;28;20493;-88
2021/12/11 07:06:13;;;;;;;22.58;12.68;;;-0.10;99.90;;;;;;12455848;28;20053;-88
2021/12/11 07:12:15;;;;;;;21.35;13.13;;;-0.10;99.90;;;;;;12460758;28;20474;-88
2021/12/11 07:18:17;;;;;;;21.33;12.82;;;0.00;99.90;;;;;;12467138;28;20055;-89
2021/12/11 07:24:24;;;;;;;24.55;14.40;;;0.20;99.90;;;;;;12468270;28;20049;-88
2021/12/11 07:30:26;;;;;;;25.17;14.25;;;0.20;99.90;;;;;;12471097;28;20053;-88
2021/12/11 07:36:29;;;;;;;27.00;14.02;;;0.00;99.90;;;;;;12470625;28;20149;-89
2021/12/11 07:42:31;;;;;;;21.95;13.70;;;0.00;99.90;;;;;;12479098;28;20041;-90
2021/12/11 07:48:33;;;;;;;23.55;13.45;;;0.10;99.90;;;;;;12482791;28;20111;-90
2021/12/11 07:54:35;;;;;;;18.40;11.77;;;0.10;99.90;;;;;;12468925;28;20049;-89
2021/12/11 08:00:39;;;;;;;24.20;14.07;;;0.20;99.90;;;;;;12462845;28;20053;-89
2021/12/11 08:06:42;;;;;;;24.67;13.90;;;0.20;99.90;;;;;;12492352;28;20053;-88
2021/12/11 08:12:44;;;;;;;21.60;13.50;;;0.40;99.90;;;;;;12463440;28;20176;-88
2021/12/11 08:18:47;;;;;;;27.30;14.50;;;0.60;99.90;;;;;;12466775;28;20079;-89
2021/12/11 08:24:49;;;;;;;25.63;15.90;;;0.70;99.90;;;;;;12477239;28;20061;-89
2021/12/11 08:30:53;;;;;;;27.55;14.60;;;0.50;99.90;;;;;;12478347;28;20053;-90
2021/12/11 08:36:56;;;;;;;22.95;13.20;;;0.20;99.90;;;;;;12467049;28;20063;-89
2021/12/11 08:42:59;;;;;;;25.83;14.38;;;0.10;99.90;;;;;;12468632;28;20468;-90
2021/12/11 08:49:06;;;;;;;23.63;12.77;;;0.20;99.90;;;;;;12473909;28;20049;-90
2021/12/11 08:55:14;;;;;;;21.63;13.70;;;0.20;99.90;;;;;;12483142;28;20063;-89
2021/12/11 09:01:33;;;;;;;23.08;13.20;;;0.40;99.90;;;;;;12474733;28;20041;-88
2021/12/11 09:08:04;;;;;;;22.65;12.98;;;0.60;99.90;;;;;;12468660;28;20056;-89
2021/12/11 09:14:36;;;;;;;22.23;12.38;;;0.60;99.90;;;;;;12458964;28;20045;-88
2021/12/11 09:20:53;;;;;;;21.15;12.18;;;0.70;99.90;;;;;;12442968;28;20045;-88
2021/12/11 09:27:33;;;;;;;18.80;12.30;;;0.70;99.90;;;;;;12483767;28;20564;-89
2021/12/11 09:33:40;;;;;;;23.38;13.25;;;0.70;99.90;;;;;;12387349;28;20082;-89
2021/12/11 09:39:54;;;;;;;23.17;12.90;;;0.80;99.90;;;;;;12477887;28;20049;-92
2021/12/11 09:45:57;;;;;;;23.70;12.95;;;0.90;99.90;;;;;;12475706;28;20447;-90
2021/12/11 09:52:17;;;;;;;25.40;13.38;;;0.80;99.90;;;;;;12468590;28;20049;-90
2021/12/11 09:58:24;;;;;;;23.80;13.77;;;1.00;99.90;;;;;;12465185;28;20194;-90
2021/12/11 10:04:36;;;;;;;26.45;14.18;;;1.10;99.90;;;;;;12479482;28;20468;-90
2021/12/11 10:10:38;;;;;;;28.35;14.35;;;1.20;99.90;;;;;;12464583;28;20387;-91
2021/12/11 10:16:44;;;;;;;24.50;13.88;;;1.40;99.90;;;;;;12471994;28;20507;-91
2021/12/11 10:22:48;;;;;;;31.38;14.60;;;1.60;99.90;;;;;;12469414;28;20518;-90
2021/12/11 10:28:54;;;;;;;28.13;15.50;;;1.90;99.90;;;;;;12482661;28;20057;-91
2021/12/11 10:35:00;;;;;;;25.70;13.98;;;1.90;99.90;;;;;;12473417;28;20049;-91
2021/12/11 10:41:05;;;;;;;37.05;16.70;;;2.20;99.90;;;;;;12463461;28;20699;-91
2021/12/11 10:47:10;;;;;;;26.08;15.45;;;2.70;99.90;;;;;;12473447;28;20061;-90
2021/12/11 10:53:16;;;;;;;25.70;13.57;;;2.60;99.90;;;;;;12482121;28;20132;-90
2021/12/11 10:59:25;;;;;;;25.02;14.23;;;3.00;99.90;;;;;;12494105;28;20499;-91
2021/12/11 11:05:29;;;;;;;27.73;14.00;;;3.10;99.90;;;;;;12473801;28;20133;-91
2021/12/11 11:11:34;;;;;;;24.52;14.18;;;2.80;99.90;;;;;;12471302;28;20048;-91
2021/12/11 11:17:36;;;;;;;28.10;15.38;;;2.70;99.90;;;;;;12471087;28;20094;-91
2021/12/11 11:23:41;;;;;;;25.23;15.57;;;2.70;99.90;;;;;;12481881;28;20057;-91
2021/12/11 11:29:45;;;;;;;26.45;15.75;;;2.70;99.90;;;;;;12468628;28;20053;-90
2021/12/11 11:35:49;;;;;;;32.80;17.38;;;2.60;99.90;;;;;;12475694;28;20327;-90
2021/12/11 11:41:56;;;;;;;33.75;18.08;;;2.90;99.90;;;;;;12495222;28;20361;-91
2021/12/11 11:47:59;;;;;;;32.72;18.20;;;3.00;99.90;;;;;;12475959;28;20057;-92
2021/12/11 11:54:02;;;;;;;33.80;19.42;;;3.40;99.90;;;;;;12471172;28;20083;-91
2021/12/11 12:00:11;;;;;;;31.40;20.70;;;3.30;99.90;;;;;;12486636;28;20049;-90
2021/12/11 12:06:22;;;;;;;29.73;19.35;;;3.30;99.90;;;;;;12475837;28;20090;-92
2021/12/11 12:12:25;;;;;;;34.28;20.98;;;3.50;99.90;;;;;;12480968;28;20045;-91
2021/12/11 12:18:27;;;;;;;39.95;21.33;;;3.20;99.90;;;;;;12465150;28;20045;-90
2021/12/11 12:24:34;;;;;;;33.90;20.33;;;3.20;99.90;;;;;;12470114;28;20080;-92
2021/12/11 12:30:44;;;;;;;32.08;20.23;;;3.00;99.90;;;;;;12484370;28;20072;-92
2021/12/11 12:36:47;;;;;;;35.78;21.27;;;2.80;99.90;;;;;;12483085;28;20073;-91
2021/12/11 12:42:55;;;;;;;33.40;21.83;;;2.70;99.90;;;;;;12476683;28;20043;-90
2021/12/11 12:48:59;;;;;;;33.15;21.85;;;2.50;99.90;;;;;;12466797;28;20088;-92
2021/12/11 12:55:06;;;;;;;37.25;22.90;;;2.60;99.90;;;;;;12467059;28;20042;-91
2021/12/11 13:01:21;;;;;;;38.90;22.17;;;2.40;99.90;;;;;;12465820;28;20037;-91
2021/12/11 13:07:23;;;;;;;43.45;25.08;;;2.30;99.90;;;;;;12482874;28;20088;-90
2021/12/11 13:13:26;;;;;;;46.00;27.00;;;2.10;99.90;;;;;;12467422;28;20057;-91
2021/12/11 13:19:35;;;;;;;47.00;27.20;;;2.00;99.90;;;;;;12469696;28;20237;-91
2021/12/11 13:25:47;;;;;;;48.63;26.70;;;1.90;99.90;;;;;;12463832;28;20053;-90
2021/12/11 13:31:59;;;;;;;48.58;26.60;;;1.90;99.90;;;;;;12469094;28;20461;-91
2021/12/11 13:38:02;;;;;;;51.00;27.38;;;1.70;99.90;;;;;;12464064;28;20135;-91
2021/12/11 13:44:05;;;;;;;54.25;28.42;;;1.40;99.90;;;;;;12466522;28;20045;-91
2021/12/11 13:50:37;;;;;;;50.17;28.63;;;1.10;99.90;;;;;;12479062;28;20091;-90
2021/12/11 13:56:43;;;;;;;55.47;27.98;;;0.90;99.90;;;;;;12478940;28;20071;-88
2021/12/11 14:02:45;;;;;;;58.45;29.95;;;0.70;99.90;;;;;;12469641;28;20124;-90
2021/12/11 14:08:47;;;;;;;62.88;29.02;;;0.50;99.90;;;;;;12462478;28;20049;-89
2021/12/11 14:14:53;;;;;;;64.40;31.92;;;0.50;99.90;;;;;;12460896;28;20044;-88
2021/12/11 14:20:55;;;;;;;66.93;32.05;;;0.40;99.90;;;;;;12466826;28;20055;-89
2021/12/11 14:27:03;;;;;;;79.43;33.67;;;0.50;99.90;;;;;;12484610;28;20053;-89
2021/12/11 14:33:06;;;;;;;75.93;33.70;;;0.40;99.90;;;;;;12470806;28;20056;-89
2021/12/11 14:39:13;;;;;;;77.53;34.63;;;0.40;99.90;;;;;;12472773;28;20546;-91
2021/12/11 14:45:19;;;;;;;69.28;31.75;;;0.40;99.90;;;;;;12478566;28;20079;-89
2021/12/11 14:51:21;;;;;;;77.68;30.60;;;0.40;99.90;;;;;;12466206;28;20076;-90
2021/12/11 14:57:24;;;;;;;70.63;30.55;;;0.40;99.90;;;;;;12478551;28;20132;-91
2021/12/11 15:03:26;;;;;;;70.25;30.17;;;0.30;99.90;;;;;;12472025;28;20538;-91
2021/12/11 15:09:28;;;;;;;68.75;29.60;;;0.30;99.90;;;;;;12472078;28;20090;-90
2021/12/11 15:15:30;;;;;;;67.82;28.98;;;0.30;99.90;;;;;;12465380;28;20057;-91
2021/12/11 15:21:34;;;;;;;69.43;29.63;;;0.30;99.90;;;;;;12472562;28;20041;-90
2021/12/11 15:27:37;;;;;;;67.10;26.90;;;0.30;99.90;;;;;;12471039;28;20132;-89
2021/12/11 15:33:46;;;;;;;68.75;28.88;;;0.30;99.90;;;;;;12476716;28;20358;-91
2021/12/11 15:39:51;;;;;;;79.57;30.08;;;0.30;99.90;;;;;;12478773;28;20701;-90
2021/12/11 15:46:00;;;;;;;77.10;30.83;;;0.30;99.90;;;;;;12478246;28;20048;-90
2021/12/11 15:52:06;;;;;;;84.35;32.30;;;0.30;99.90;;;;;;12464844;28;20892;-92
2021/12/11 15:58:09;;;;;;;90.53;30.80;;;0.30;99.90;;;;;;12468144;28;20156;-90
2021/12/11 16:04:14;;;;;;;77.90;27.08;;;0.30;99.90;;;;;;12472387;28;20041;-90
2021/12/11 16:10:17;;;;;;;86.80;27.92;;;0.10;99.90;;;;;;12475793;28;20571;-89
2021/12/11 16:16:20;;;;;;;89.00;25.10;;;0.10;99.90;;;;;;12465691;28;20049;-90
2021/12/11 16:22:23;;;;;;;82.68;22.02;;;0.10;99.90;;;;;;12464657;28;20107;-90
2021/12/11 16:28:25;;;;;;;76.15;21.50;;;0.10;99.90;;;;;;12465906;28;20103;-90
2021/12/11 16:34:27;;;;;;;88.43;20.77;;;0.20;99.90;;;;;;12467031;28;20059;-89
2021/12/11 16:40:35;;;;;;;88.97;21.92;;;0.30;99.90;;;;;;12483352;28;20155;-89
2021/12/11 16:46:46;;;;;;;87.60;22.10;;;0.30;99.90;;;;;;12466999;28;20063;-89
2021/12/11 16:52:48;;;;;;;97.50;22.73;;;0.40;99.90;;;;;;12470486;28;20080;-89
2021/12/11 16:58:51;;;;;;;85.72;22.77;;;0.40;99.90;;;;;;12490389;28;20072;-90
2021/12/11 17:04:53;;;;;;;91.72;24.05;;;0.50;99.90;;;;;;12467877;28;20045;-90
2021/12/11 17:10:58;;;;;;;79.82;22.45;;;0.50;99.90;;;;;;12475486;28;20278;-89
2021/12/11 17:17:00;;;;;;;99.68;25.45;;;0.50;99.90;;;;;;12465741;28;20049;-89
2021/12/11 17:23:02;;;;;;;102.00;26.23;;;0.40;99.90;;;;;;12463759;28;20065;-90
2021/12/11 17:29:08;;;;;;;99.20;25.92;;;0.50;99.90;;;;;;12475986;28;20063;-90
2021/12/11 17:35:11;;;;;;;95.15;24.77;;;0.50;99.90;;;;;;12471330;28;20429;-90
2021/12/11 17:41:14;;;;;;;81.95;23.05;;;0.40;99.90;;;;;;12478521;28;20135;-89
2021/12/11 17:47:16;;;;;;;80.38;24.45;;;0.30;99.90;;;;;;12464752;28;20127;-88
2021/12/11 17:53:19;;;;;;;98.22;24.90;;;0.40;99.90;;;;;;12462916;28;20521;-88
2021/12/11 17:59:24;;;;;;;84.65;24.75;;;0.50;99.90;;;;;;12463808;28;20650;-90
2021/12/11 18:05:34;;;;;;;89.18;26.85;;;0.60;99.90;;;;;;12481540;28;20053;-90
2021/12/11 18:11:47;;;;;;;95.80;25.90;;;0.70;99.90;;;;;;12480621;28;20080;-90
2021/12/11 18:17:55;;;;;;;86.22;26.48;;;0.80;99.90;;;;;;12468006;28;20049;-89
2021/12/11 18:23:57;;;;;;;84.00;27.40;;;0.80;99.90;;;;;;12465119;28;20050;-89
2021/12/11 18:30:02;;;;;;;78.45;26.30;;;0.80;99.90;;;;;;12464392;28;20152;-90
2021/12/11 18:36:13;;;;;;;78.68;27.42;;;0.70;99.90;;;;;;12460191;28;20049;-89
2021/12/11 18:42:26;;;;;;;86.35;27.40;;;0.70;99.90;;;;;;12464285;28;20041;-88
2021/12/11 18:48:31;;;;;;;75.93;28.23;;;0.80;99.90;;;;;;12468105;28;20490;-90
2021/12/11 18:54:35;;;;;;;;;;;0.80;99.90;;;;;;12482240;28;20067;-90
2021/12/11 19:00:49;;;;;;;75.90;26.48;;;0.90;99.90;;;;;;12474809;28;19925;-88
2021/12/11 19:06:53;;;;;;;78.00;27.58;;;0.90;99.90;;;;;;12493232;28;20033;-89
2021/12/11 19:12:55;;;;;;;77.13;26.27;;;1.00;99.90;;;;;;12474480;28;20136;-89
2021/12/11 19:18:57;;;;;;;68.45;26.45;;;0.90;99.90;;;;;;12472342;28;20094;-89
2021/12/11 19:25:02;;;;;;;65.43;26.20;;;1.00;99.90;;;;;;12486829;28;20051;-89
2021/12/11 19:31:19;;;;;;;62.70;25.42;;;1.00;99.90;;;;;;12490458;28;20513;-89
2021/12/11 19:37:22;;;;;;;66.53;25.70;;;1.20;99.90;;;;;;12489380;28;20577;-88
2021/12/11 19:43:26;;;;;;;69.75;27.73;;;1.20;99.90;;;;;;12458844;28;20136;-89
2021/12/11 19:49:28;;;;;;;89.20;33.42;;;1.30;99.90;;;;;;12482987;28;20056;-87
2021/12/11 19:55:32;;;;;;;85.35;31.88;;;1.30;99.90;;;;;;12467275;28;20037;-89
2021/12/11 20:01:35;;;;;;;87.70;31.17;;;1.30;99.90;;;;;;12471662;28;20040;-89
2021/12/11 20:07:38;;;;;;;89.73;31.50;;;1.30;99.90;;;;;;12484696;28;20052;-89
2021/12/11 20:13:42;;;;;;;97.30;30.20;;;1.30;99.90;;;;;;12473265;28;20319;-91
2021/12/11 20:19:45;;;;;;;89.80;27.10;;;1.20;99.90;;;;;;12469393;28;20415;-89
2021/12/11 20:25:50;;;;;;;93.30;27.80;;;1.30;99.90;;;;;;12474076;28;20084;-90
2021/12/11 20:31:56;;;;;;;104.28;28.05;;;1.40;99.90;;;;;;12460371;28;20358;-90
2021/12/11 20:37:59;;;;;;;119.15;29.55;;;1.40;99.90;;;;;;12474109;28;20059;-89
2021/12/11 20:44:05;;;;;;;121.28;31.52;;;1.50;99.90;;;;;;12469675;28;20045;-89
2021/12/11 20:50:14;;;;;;;113.68;28.95;;;1.50;99.90;;;;;;12469380;28;20054;-90
2021/12/11 20:56:19;;;;;;;116.15;29.23;;;1.50;99.90;;;;;;12468703;28;20398;-89
2021/12/11 21:02:25;;;;;;;131.30;30.83;;;1.60;99.90;;;;;;12475677;28;20144;-90
2021/12/11 21:08:27;;;;;;;135.60;32.40;;;1.60;99.90;;;;;;12472026;28;20060;-89
2021/12/11 21:14:29;;;;;;;144.93;31.55;;;1.70;99.90;;;;;;12467395;28;20123;-88
2021/12/11 21:20:43;;;;;;;152.68;32.35;;;1.70;99.90;;;;;;12482246;28;20590;-90
2021/12/11 21:26:46;;;;;;;157.87;34.97;;;1.80;99.90;;;;;;12464320;28;20132;-90
2021/12/11 21:32:50;;;;;;;154.93;35.70;;;1.90;99.90;;;;;;12464866;28;20103;-90
2021/12/11 21:38:57;;;;;;;157.70;34.55;;;1.90;99.90;;;;;;12465392;28;20722;-90
2021/12/11 21:45:16;;;;;;;152.05;33.28;;;1.90;99.90;;;;;;12453901;28;20052;-91
2021/12/11 21:51:32;;;;;;;147.68;31.98;;;1.90;99.90;;;;;;12463558;28;20510;-89
2021/12/11 21:57:34;;;;;;;154.07;31.67;;;2.00;99.90;;;;;;12472535;28;20163;-90
2021/12/11 22:03:41;;;;;;;167.20;33.45;;;2.10;99.90;;;;;;12478254;28;20137;-89
2021/12/11 22:09:47;;;;;;;171.25;35.13;;;2.10;99.90;;;;;;12478258;28;20505;-89
2021/12/11 22:16:00;;;;;;;180.65;38.15;;;2.10;99.90;;;;;;12471255;28;20053;-90
2021/12/11 22:22:05;;;;;;;181.60;38.90;;;2.20;99.90;;;;;;12462052;28;20076;-90
2021/12/11 22:28:07;;;;;;;;;;;2.20;99.90;;;;;;12458242;28;20057;-90
2021/12/11 22:34:10;;;;;;;186.93;38.78;;;2.20;99.90;;;;;;12470252;28;19925;-89
2021/12/11 22:40:27;;;;;;;179.45;38.28;;;2.20;99.90;;;;;;12461747;28;20084;-91
2021/12/11 22:46:32;;;;;;;189.88;40.15;;;2.20;99.90;;;;;;12478434;28;20064;-90
2021/12/11 22:52:34;;;;;;;199.23;41.58;;;2.20;99.90;;;;;;12487134;28;20044;-91
2021/12/11 22:58:44;;;;;;;187.13;39.95;;;2.30;99.90;;;;;;12474192;28;20049;-90
2021/12/11 23:04:58;;;;;;;184.60;42.28;;;2.30;99.90;;;;;;12469286;28;20057;-90
2021/12/11 23:11:11;;;;;;;183.60;43.75;;;2.40;99.90;;;;;;12475241;28;20059;-89
2021/12/11 23:17:28;;;;;;;203.15;45.08;;;2.50;99.90;;;;;;12470346;28;20594;-91
2021/12/11 23:23:43;;;;;;;182.00;45.80;;;2.60;99.90;;;;;;12483851;28;20141;-90
2021/12/11 23:29:47;;;;;;;;;;;2.70;99.90;;;;;;12466345;28;20607;-90
2021/12/11 23:36:07;;;;;;;169.90;43.72;;;2.80;99.90;;;;;;12473232;28;19931;-90
2021/12/11 23:42:41;;;;;;;168.30;43.80;;;2.70;99.90;;;;;;12469817;28;20509;-91
2021/12/11 23:48:44;;;;;;;158.75;45.28;;;2.70;99.90;;;;;;12458020;28;20413;-89
2021/12/11 23:54:52;;;;;;;144.20;45.03;;;2.70;99.90;;;;;;12489474;28;20146;-90
